Time;durP1;ratioP1;P1;durP2;ratioP2;P2;SDS_P1;SDS_P2;PMS_P1;PMS_P2;Temp;Humidity;BMP_temperature;BMP_pressure;BME280_temperature;BME280_humidity;BME280_pressure;Samples;Min_cycle;Max_cycle;Signal;HPM_P1;HPM_P2
2021/03/03 10:39:34;;;;;;;39.63;20.25;;;20.40;40.70;;;;;;5147871;27;20698;-59
2021/03/03 10:42:05;;;;;;;39.13;19.60;;;20.80;39.50;;;;;;5131079;27;20024;-60
2021/03/03 10:44:49;;;;;;;33.47;19.35;;;21.40;40.20;;;;;;5131151;28;20023;-60
2021/03/03 10:47:16;;;;;;;44.83;19.60;;;22.10;37.40;;;;;;5117794;28;20472;-60
2021/03/03 10:50:01;;;;;;;45.53;19.77;;;22.80;36.00;;;;;;5124258;28;20024;-60
2021/03/03 10:52:27;;;;;;;26.95;18.38;;;23.10;35.00;;;;;;5113247;28;20389;-60
2021/03/03 10:54:52;;;;;;;37.00;18.75;;;23.90;34.10;;;;;;5119824;28;20107;-60
2021/03/03 10:57:18;;;;;;;30.33;19.00;;;24.00;33.00;;;;;;5110280;28;20035;-61
2021/03/03 10:59:44;;;;;;;30.90;18.63;;;;;;;;;;5109386;28;20027;-61
2021/03/03 11:02:21;;;;;;;34.00;18.83;;;25.00;32.00;;;;;;5109550;28;20023;-61
2021/03/03 11:04:47;;;;;;;29.02;18.00;;;26.00;29.70;;;;;;5109153;28;20020;-61
2021/03/03 11:07:15;;;;;;;30.23;18.33;;;26.50;30.30;;;;;;5109475;28;20073;-63
2021/03/03 11:09:41;;;;;;;22.42;14.77;;;26.60;29.70;;;;;;5127445;27;20031;-62
2021/03/03 11:12:09;;;;;;;21.83;13.82;;;27.00;29.40;;;;;;5112075;28;20031;-64
2021/03/03 11:14:35;;;;;;;21.42;14.35;;;27.30;29.10;;;;;;5130656;28;20024;-61
2021/03/03 11:17:03;;;;;;;23.83;15.23;;;;;;;;;;5130593;28;20031;-63
2021/03/03 11:19:29;;;;;;;27.77;15.80;;;;;;;;;;5130584;28;20466;-62
2021/03/03 11:21:56;;;;;;;27.13;15.75;;;;;;;;;;5111942;28;20055;-63
2021/03/03 11:24:23;;;;;;;21.90;14.90;;;;;;;;;;5130041;28;20073;-63
2021/03/03 11:26:49;;;;;;;21.33;14.93;;;;;;;;;;5104702;28;20016;-61
2021/03/03 11:29:16;;;;;;;21.75;13.52;;;;;;;;;;5109866;28;20055;-64
2021/03/03 11:31:43;;;;;;;26.30;13.48;;;;;;;;;;5109996;28;20475;-64
2021/03/03 11:34:09;;;;;;;21.00;13.65;;;;;;;;;;5091557;28;20055;-64
2021/03/03 11:36:37;;;;;;;18.77;12.65;;;;;;;;;;5091424;28;20020;-63
2021/03/03 11:39:04;;;;;;;20.08;12.52;;;;;;;;;;5109128;28;20051;-65
2021/03/03 11:41:30;;;;;;;20.50;13.68;;;;;;;;;;5091214;28;20455;-65
2021/03/03 11:43:56;;;;;;;18.92;12.75;;;;;;;;;;5109581;28;20069;-64
2021/03/03 11:46:23;;;;;;;21.83;13.63;;;;;;;;;;5091184;28;20022;-63
2021/03/03 11:48:49;;;;;;;21.02;14.38;;;;;;;;;;5107891;28;20027;-64
2021/03/03 11:51:15;;;;;;;19.50;13.20;;;;;;;;;;5095772;28;20210;-60
2021/03/03 11:53:42;;;;;;;20.90;12.68;;;;;;;;;;5095858;28;20021;-61
2021/03/03 11:56:08;;;;;;;21.73;12.73;;;;;;;;;;5095491;28;20026;-65
2021/03/03 11:58:35;;;;;;;23.05;11.88;;;;;;;;;;5077083;28;20027;-62
2021/03/03 12:01:02;;;;;;;17.10;11.90;;;;;;;;;;5077036;28;20760;-64
2021/03/03 12:03:28;;;;;;;19.25;11.98;;;;;;;;;;5095182;28;20095;-66
2021/03/03 12:05:54;;;;;;;24.15;12.50;;;;;;;;;;5077339;28;20133;-65
2021/03/03 12:08:20;;;;;;;21.50;12.60;;;;;;;;;;5077276;28;20350;-61
2021/03/03 12:10:46;;;;;;;19.10;11.82;;;;;;;;;;5077140;28;20030;-63
2021/03/03 12:13:13;;;;;;;20.10;12.88;;;;;;;;;;5094946;28;20422;-60
2021/03/03 12:15:39;;;;;;;23.17;13.10;;;;;;;;;;5101641;28;20023;-61
2021/03/03 12:18:05;;;;;;;20.65;13.93;;;;;;;;;;5114173;27;20036;-61
2021/03/03 12:20:32;;;;;;;26.08;13.55;;;;;;;;;;5109685;28;20016;-66
2021/03/03 12:22:58;;;;;;;19.95;12.18;;;;;;;;;;5095224;28;20117;-65
2021/03/03 12:25:25;;;;;;;22.00;14.20;;;;;;;;;;5099792;27;20106;-65
2021/03/03 12:27:52;;;;;;;37.88;14.13;;;;;;;;;;5107688;27;20142;-63
2021/03/03 12:30:18;;;;;;;32.20;14.38;;;;;;;;;;5103272;27;20040;-65
2021/03/03 12:32:45;;;;;;;25.00;12.15;;;;;;;;;;5076880;28;20035;-62
2021/03/03 12:35:11;;;;;;;18.63;13.15;;;;;;;;;;5095179;28;20028;-64
2021/03/03 12:37:37;;;;;;;20.05;12.77;;;;;;;;;;5076631;28;20410;-62
2021/03/03 12:40:04;;;;;;;18.20;13.20;;;;;;;;;;5094905;28;20016;-65
2021/03/03 12:42:31;;;;;;;18.48;12.52;;;;;;;;;;5113866;27;20464;-62
2021/03/03 12:44:57;;;;;;;17.77;12.43;;;;;;;;;;5117655;27;20023;-65
2021/03/03 12:47:24;;;;;;;22.08;12.43;;;;;;;;;;5135915;27;20110;-62
2021/03/03 12:49:50;;;;;;;17.80;12.65;;;;;;;;;;5117124;27;20046;-62
2021/03/03 12:52:16;;;;;;;18.38;12.55;;;;;;;;;;5128590;27;20027;-62
2021/03/03 12:54:42;;;;;;;22.90;13.27;;;;;;;;;;5093401;28;20327;-62
2021/03/03 12:57:08;;;;;;;22.38;12.55;;;;;;;;;;5093536;28;20428;-61
2021/03/03 12:59:35;;;;;;;17.20;12.25;;;;;;;;;;5094309;28;20426;-62
2021/03/03 13:02:01;;;;;;;19.67;12.00;;;;;;;;;;5091832;28;20024;-61
2021/03/03 13:04:27;;;;;;;15.77;11.88;;;;;;;;;;5133577;27;20047;-60
2021/03/03 13:06:53;;;;;;;19.55;11.70;;;;;;;;;;5134972;27;20056;-61
2021/03/03 13:09:19;;;;;;;22.42;11.88;;;;;;;;;;5135437;27;20537;-62
2021/03/03 13:11:46;;;;;;;18.33;10.73;;;;;;;;;;5135347;27;20023;-62
2021/03/03 13:14:12;;;;;;;18.77;10.43;;;;;;;;;;5135455;27;20023;-61
2021/03/03 13:16:39;;;;;;;14.65;10.82;;;;;;;;;;5105230;27;20476;-61
2021/03/03 13:19:05;;;;;;;17.10;11.73;;;;;;;;;;5105481;28;20069;-61
2021/03/03 13:21:31;;;;;;;25.23;13.23;;;;;;;;;;5096014;28;20028;-62
2021/03/03 13:24:35;;;;;;;16.75;10.65;;;;;;;;;;5091426;28;20059;-62
2021/03/03 13:27:01;;;;;;;15.02;11.07;;;;;;;;;;5091238;28;20111;-61
2021/03/03 13:29:27;;;;;;;15.00;10.85;;;;;;;;;;5108257;28;20028;-61
2021/03/03 13:31:58;;;;;;;15.45;11.02;;;;;;;;;;5113459;28;20028;-60
2021/03/03 13:34:24;;;;;;;18.30;10.50;;;;;;;;;;5113537;28;20024;-61
2021/03/03 13:36:51;;;;;;;23.55;11.20;;;;;;;;;;5113533;28;20107;-60
2021/03/03 13:39:17;;;;;;;16.23;10.35;;;27.40;23.70;;;;;;5113386;28;20055;-61
2021/03/03 13:41:43;;;;;;;13.82;8.75;;;26.00;25.60;;;;;;5113846;28;20020;-61
2021/03/03 13:44:11;;;;;;;15.77;9.75;;;24.70;25.40;;;;;;5113919;28;20611;-60
2021/03/03 13:46:37;;;;;;;14.45;9.57;;;24.20;25.60;;;;;;5113946;28;20034;-61
2021/03/03 13:49:03;;;;;;;15.00;9.15;;;23.70;25.20;;;;;;5114178;28;20030;-60
2021/03/03 13:51:29;;;;;;;14.90;9.95;;;23.30;25.30;;;;;;5114320;28;20395;-61
2021/03/03 13:53:55;;;;;;;15.65;8.88;;;23.00;26.80;;;;;;5112912;28;20110;-61
2021/03/03 13:56:21;;;;;;;11.13;7.25;;;23.10;25.70;;;;;;5113894;28;20098;-60
2021/03/03 13:58:47;;;;;;;10.38;7.28;;;23.30;25.10;;;;;;5095326;28;20122;-61
2021/03/03 14:01:13;;;;;;;11.80;7.88;;;23.70;24.30;;;;;;5112296;28;20697;-61
2021/03/03 14:03:38;;;;;;;12.25;8.05;;;23.20;24.90;;;;;;5113394;28;20457;-61
2021/03/03 14:06:04;;;;;;;13.35;7.95;;;23.30;25.70;;;;;;5109927;28;20035;-61
2021/03/03 14:08:31;;;;;;;11.30;8.38;;;24.90;24.70;;;;;;5097957;28;20118;-61
2021/03/03 14:10:57;;;;;;;15.25;8.68;;;25.10;25.10;;;;;;5092100;28;20074;-61
2021/03/03 14:13:25;;;;;;;14.77;8.57;;;25.50;24.60;;;;;;5108325;28;20027;-61
2021/03/03 14:15:51;;;;;;;12.98;7.82;;;25.90;24.40;;;;;;5094550;28;20024;-61
2021/03/03 14:18:17;;;;;;;11.75;7.95;;;25.60;23.60;;;;;;5113372;28;20112;-61
2021/03/03 14:20:42;;;;;;;15.27;10.07;;;26.00;22.90;;;;;;5113481;28;20051;-61
2021/03/03 14:23:08;;;;;;;19.15;10.45;;;24.90;23.80;;;;;;5111943;28;20045;-61
2021/03/03 14:25:34;;;;;;;28.40;12.52;;;24.20;25.40;;;;;;5092390;28;20062;-61
2021/03/03 14:28:00;;;;;;;12.48;9.50;;;23.70;26.20;;;;;;5113454;28;20032;-60
2021/03/03 14:30:26;;;;;;;18.98;9.43;;;23.90;24.90;;;;;;5102567;28;20035;-61
2021/03/03 14:32:52;;;;;;;17.77;9.07;;;22.60;25.30;;;;;;5100489;28;20044;-61
2021/03/03 14:35:18;;;;;;;21.45;10.73;;;23.10;26.30;;;;;;5091828;28;20077;-61
2021/03/03 14:37:44;;;;;;;13.43;9.35;;;23.20;26.00;;;;;;5091975;28;20048;-61
2021/03/03 14:40:10;;;;;;;17.90;11.40;;;22.40;25.10;;;;;;5092607;28;20085;-61
2021/03/03 14:42:36;;;;;;;18.08;10.70;;;22.20;25.80;;;;;;5092889;28;20103;-61
2021/03/03 14:45:02;;;;;;;17.58;11.35;;;22.40;26.10;;;;;;5093033;28;20107;-61
2021/03/03 14:47:27;;;;;;;16.08;9.40;;;22.80;25.50;;;;;;5074980;28;20112;-61
2021/03/03 14:49:53;;;;;;;18.27;9.85;;;23.50;26.00;;;;;;5093309;28;20519;-61
2021/03/03 14:52:19;;;;;;;18.50;10.35;;;23.70;25.10;;;;;;5092919;28;20032;-61
2021/03/03 14:54:45;;;;;;;23.73;13.05;;;22.90;24.70;;;;;;5092900;28;20024;-61
2021/03/03 14:57:11;;;;;;;16.55;10.25;;;22.00;26.10;;;;;;5104615;28;20036;-60
2021/03/03 14:59:42;;;;;;;15.30;9.80;;;21.90;26.30;;;;;;5075389;28;20422;-61
2021/03/03 15:02:09;;;;;;;33.50;16.98;;;21.60;26.90;;;;;;5092802;28;20024;-61
2021/03/03 16:21:17;;;;;;;41.72;21.23;;;;;;;;;;5090160;27;20372;-60
2021/03/03 16:23:43;;;;;;;63.80;28.15;;;16.80;37.20;;;;;;5088582;28;20107;-60
2021/03/03 16:26:08;;;;;;;121.78;48.80;;;15.90;39.20;;;;;;5081267;28;20190;-60
2021/03/03 16:28:34;;;;;;;131.02;51.40;;;15.60;39.10;;;;;;5082008;28;20035;-61
2021/03/03 16:31:00;;;;;;;97.43;38.08;;;;;;;;;;5072719;28;20032;-59
2021/03/03 16:33:27;;;;;;;81.43;35.95;;;;;;;;;;5078635;28;20031;-59
2021/03/03 16:35:53;;;;;;;79.30;40.38;;;;;;;;;;5068920;28;20019;-59
2021/03/03 16:38:26;;;;;;;120.38;44.42;;;;;;;;;;5070104;28;20017;-61
2021/03/03 16:40:53;;;;;;;81.85;42.83;;;;;;;;;;5069984;28;20394;-59
2021/03/03 16:43:19;;;;;;;75.95;40.33;;;;;;;;;;5076623;28;20119;-59
2021/03/03 16:45:46;;;;;;;63.00;35.40;;;;;;;;;;5074520;28;20060;-59
2021/03/03 16:48:13;;;;;;;54.58;30.02;;;;;;;;;;5069915;28;20091;-62
2021/03/03 16:50:39;;;;;;;49.60;25.75;;;;;;;;;;5069937;28;20036;-62
2021/03/03 17:09:35;;;;;;;102.38;42.15;;;;;;;;;;5069023;28;20466;-59
2021/03/03 17:12:05;;;;;;;87.25;49.00;;;;;;;;;;5068888;28;20025;-59
2021/03/03 17:14:31;;;;;;;66.22;38.80;;;;;;;;;;5068765;28;20399;-59
2021/03/03 17:16:57;;;;;;;71.95;45.35;;;;;;;;;;5068957;28;20021;-60
2021/03/03 17:19:23;;;;;;;74.70;44.30;;;;;;;;;;5068432;28;20059;-61
2021/03/03 17:21:50;;;;;;;83.05;46.28;;;;;;;;;;5066586;28;20143;-62
2021/03/03 17:24:17;;;;;;;80.63;46.28;;;;;;;;;;5073531;28;20111;-59
2021/03/03 17:26:43;;;;;;;97.18;47.45;;;;;;;;;;5069068;28;20021;-59
2021/03/03 17:29:09;;;;;;;95.70;47.47;;;;;;;;;;5068705;28;20475;-59
2021/03/03 17:31:36;;;;;;;187.20;95.38;;;;;;;;;;5059775;28;20489;-59
2021/03/03 17:34:03;;;;;;;122.18;60.50;;;;;;;;;;5055867;28;20028;-59
2021/03/03 17:36:30;;;;;;;132.43;63.83;;;;;;;;;;5055476;28;20431;-59
2021/03/03 17:38:56;;;;;;;171.43;82.47;;;;;;;;;;5054370;28;20514;-60
2021/03/03 17:41:22;;;;;;;185.77;85.68;;;;;;;;;;5062356;28;20082;-59
2021/03/03 17:43:48;;;;;;;194.18;94.00;;;;;;;;;;5055488;28;20112;-59
2021/03/03 17:46:15;;;;;;;241.65;112.65;;;;;;;;;;5068168;28;20126;-60
2021/03/03 17:48:41;;;;;;;302.15;133.25;;;;;;;;;;5055394;28;20469;-59
2021/03/03 17:51:07;;;;;;;505.20;219.23;;;;;;;;;;5054197;28;20467;-60
2021/03/03 17:53:33;;;;;;;434.75;184.32;;;;;;;;;;5055778;28;20021;-59
2021/03/03 17:55:59;;;;;;;297.60;132.63;;;;;;;;;;5054280;28;20374;-59
2021/03/03 17:58:26;;;;;;;223.27;98.05;;;;;;;;;;5055059;28;20028;-59
2021/03/03 18:00:52;;;;;;;123.28;57.45;;;;;;;;;;5055028;28;20048;-59
2021/03/03 18:03:19;;;;;;;107.90;50.42;;;;;;;;;;5054719;28;20680;-59
2021/03/03 18:05:46;;;;;;;103.20;49.55;;;;;;;;;;5055213;28;20033;-59
2021/03/03 18:08:12;;;;;;;146.65;54.58;;;;;;;;;;5053634;28;20061;-59
2021/03/03 18:10:39;;;;;;;148.15;57.13;;;;;;;;;;5055124;28;20040;-63
2021/03/03 18:13:05;;;;;;;117.13;49.28;;;;;;;;;;5054663;28;20036;-61
2021/03/03 18:15:31;;;;;;;101.43;45.28;;;;;;;;;;5053442;28;20163;-61
2021/03/03 18:17:58;;;;;;;91.10;41.30;;;;;;;;;;5054681;28;20467;-60
2021/03/03 18:20:25;;;;;;;83.43;42.50;;;;;;;;;;5052779;28;20447;-61
2021/03/03 18:22:51;;;;;;;82.10;40.00;;;;;;;;;;5055196;28;20075;-61
2021/03/03 18:25:17;;;;;;;70.20;37.00;;;;;;;;;;5055180;28;20494;-60
2021/03/03 18:27:44;;;;;;;130.70;58.53;;;;;;;;;;5054655;28;20436;-61
2021/03/03 18:30:12;;;;;;;110.45;51.78;;;;;;;;;;5073147;28;20509;-63
2021/03/03 18:32:38;;;;;;;94.45;43.50;;;;;;;;;;5073372;28;20473;-62
2021/03/03 18:35:06;;;;;;;97.18;39.38;;;;;;;;;;5075032;28;20123;-61
2021/03/03 18:37:32;;;;;;;105.05;48.72;;;;;;;;;;5071539;28;20029;-61
2021/03/03 18:39:58;;;;;;;119.28;56.95;;;;;;;;;;5054387;28;20037;-62
2021/03/03 18:42:25;;;;;;;131.93;63.55;;;;;;;;;;5067795;28;20470;-60
2021/03/03 18:44:53;;;;;;;149.75;72.38;;;;;;;;;;5074602;28;20034;-61
2021/03/03 18:47:19;;;;;;;173.02;83.22;;;;;;;;;;5074197;28;20025;-62
2021/03/03 18:49:46;;;;;;;185.60;92.43;;;;;;;;;;5060533;28;20471;-62
2021/03/03 18:52:12;;;;;;;156.60;79.88;;;;;;;;;;5052153;28;20087;-62
2021/03/03 18:54:38;;;;;;;159.88;79.05;;;;;;;;;;5053425;28;20110;-62
2021/03/03 18:57:05;;;;;;;117.20;52.05;;;;;;;;;;5054055;28;20025;-63
2021/03/03 18:59:30;;;;;;;89.43;47.20;;;15.40;40.50;;;;;;5054080;28;20029;-62
2021/03/03 19:01:56;;;;;;;163.93;79.78;;;13.30;92.20;;;;;;5053101;28;20390;-61
2021/03/03 19:04:22;;;;;;;125.75;60.72;;;12.80;54.40;;;;;;5052993;28;20124;-60
2021/03/03 19:06:48;;;;;;;123.70;56.70;;;;;;;;;;5054001;28;20032;-60
2021/03/03 19:09:15;;;;;;;117.80;53.25;;;;;;;;;;5053770;28;20509;-60
2021/03/03 19:11:42;;;;;;;97.35;47.67;;;;;;;;;;5053578;28;20437;-59
2021/03/03 19:14:08;;;;;;;106.60;51.38;;;;;;;;;;5053922;28;20029;-60
2021/03/03 19:16:35;;;;;;;127.80;59.55;;;;;;;;;;5052407;28;20026;-60
2021/03/03 19:19:01;;;;;;;142.35;69.18;;;;;;;;;;5053223;28;20376;-60
2021/03/03 19:21:27;;;;;;;158.23;76.22;;;;;;;;;;5054449;28;20025;-61
2021/03/03 19:23:54;;;;;;;177.30;79.82;;;;;;;;;;5068157;28;20553;-61
2021/03/03 19:26:20;;;;;;;159.18;80.20;;;;;;;;;;5061393;28;20029;-60
2021/03/03 19:28:46;;;;;;;176.63;82.60;;;;;;;;;;5069995;28;20033;-60
2021/03/03 19:31:12;;;;;;;175.25;81.22;;;;;;;;;;5069642;28;20117;-61
2021/03/03 19:33:39;;;;;;;172.70;81.13;;;;;;;;;;5065896;28;20028;-60
2021/03/03 19:36:05;;;;;;;181.73;80.38;;;;;;;;;;5057347;28;20032;-60
2021/03/03 19:38:32;;;;;;;188.85;82.65;;;;;;;;;;5053416;28;20106;-60
2021/03/03 19:40:58;;;;;;;185.13;81.80;;;;;;;;;;5051942;28;20040;-59
2021/03/03 19:43:25;;;;;;;203.07;82.30;;;;;;;;;;5064310;28;20109;-60
2021/03/03 19:45:51;;;;;;;177.70;80.43;;;;;;;;;;5072506;28;20469;-60
2021/03/03 19:48:17;;;;;;;172.88;75.43;;;;;;;;;;5073137;28;20051;-60
2021/03/03 19:50:43;;;;;;;182.30;78.25;;;;;;;;;;5073178;28;20036;-61
2021/03/03 19:53:10;;;;;;;193.40;79.43;;;;;;;;;;5073113;28;20028;-62
2021/03/03 19:55:36;;;;;;;195.88;82.03;;;;;;;;;;5072831;28;20032;-61
2021/03/03 19:58:02;;;;;;;197.32;83.40;;;;;;;;;;5073057;28;20115;-59
2021/03/03 20:00:28;;;;;;;185.27;82.95;;;;;;;;;;5073063;28;20032;-61
2021/03/03 20:02:55;;;;;;;191.13;82.85;;;;;;;;;;5073391;28;20033;-60
2021/03/03 20:05:22;;;;;;;182.90;83.03;;;;;;;;;;5073205;28;20095;-59
2021/03/03 20:07:48;;;;;;;174.52;86.30;;;;;;;;;;5073131;28;20029;-60
2021/03/03 20:10:14;;;;;;;178.73;83.05;;;;;;;;;;5071731;28;20056;-60
2021/03/03 20:12:44;;;;;;;185.93;87.88;;;;;;;;;;5073002;28;20024;-59
2021/03/03 20:15:11;;;;;;;187.95;88.78;;;;;;;;;;5071481;28;20052;-59
2021/03/03 20:17:37;;;;;;;197.45;88.25;;;;;;;;;;5073006;28;20490;-60
2021/03/03 20:20:05;;;;;;;193.40;90.82;;;;;;;;;;5068726;28;20127;-63
2021/03/03 20:22:31;;;;;;;203.77;92.10;;;;;;;;;;5072799;28;20033;-62
2021/03/03 20:24:57;;;;;;;215.55;93.80;;;;;;;;;;5073375;28;20101;-63
2021/03/03 20:27:24;;;;;;;233.93;99.88;;;;;;;;;;5072701;28;20031;-62
2021/03/03 20:29:50;;;;;;;274.08;109.82;;;;;;;;;;5066466;28;20043;-63
2021/03/03 20:32:16;;;;;;;236.20;106.18;;;;;;;;;;5070307;28;20025;-62
2021/03/03 20:34:43;;;;;;;347.60;152.80;;;;;;;;;;5071917;28;20029;-62
2021/03/03 20:37:09;;;;;;;270.40;124.55;;;;;;;;;;5071868;28;20426;-62
2021/03/03 20:39:36;;;;;;;241.93;108.65;;;;;;;;;;5072353;28;20111;-62
2021/03/03 20:42:02;;;;;;;254.95;116.00;;;;;;;;;;5072821;28;20094;-61
2021/03/03 20:44:28;;;;;;;295.20;127.57;;;;;;;;;;5071464;28;20025;-62
2021/03/03 20:46:55;;;;;;;306.50;128.63;;;;;;;;;;5053544;28;20025;-62
2021/03/03 20:49:21;;;;;;;274.38;120.70;;;;;;;;;;5051453;28;20391;-63
2021/03/03 20:51:47;;;;;;;283.95;127.43;;;12.40;53.20;;;;;;5052764;28;20421;-66
2021/03/03 20:54:13;;;;;;;301.80;134.15;;;8.70;64.40;;;;;;5051259;28;20029;-65
2021/03/03 20:56:39;;;;;;;303.73;129.90;;;8.40;63.20;;;;;;5052532;28;20037;-62
2021/03/03 20:59:07;;;;;;;305.48;137.60;;;8.30;63.90;;;;;;5050690;28;20040;-62
2021/03/03 21:04:39;;;;;;;294.02;135.43;;;8.20;65.20;;;;;;5063325;28;20108;-62
2021/03/03 21:07:05;;;;;;;264.08;126.00;;;8.00;66.80;;;;;;5073972;28;20445;-62
2021/03/03 21:09:31;;;;;;;279.98;128.70;;;7.90;67.50;;;;;;5075945;28;20039;-62
2021/03/03 21:11:57;;;;;;;319.20;144.52;;;7.90;68.20;;;;;;5075139;28;20021;-62
2021/03/03 21:14:23;;;;;;;321.58;141.70;;;7.80;66.00;;;;;;5076660;28;20028;-62
2021/03/03 21:16:49;;;;;;;332.85;151.40;;;7.80;66.00;;;;;;5076301;28;20029;-62
2021/03/03 21:19:15;;;;;;;354.70;160.45;;;8.00;65.50;;;;;;5075916;28;20052;-63
2021/03/03 21:21:42;;;;;;;316.58;149.25;;;;;;;;;;5076183;28;20043;-63
2021/03/03 21:24:08;;;;;;;320.60;145.82;;;;;;;;;;5076290;28;20025;-62
2021/03/03 21:26:35;;;;;;;300.73;143.20;;;;;;;;;;5076158;28;20032;-62
2021/03/03 21:29:01;;;;;;;311.55;143.68;;;;;;;;;;5076248;28;20111;-62
2021/03/03 21:31:27;;;;;;;308.00;139.45;;;;;;;;;;5075315;28;20554;-62
2021/03/03 21:33:53;;;;;;;287.27;132.05;;;;;;;;;;5075826;28;20108;-63
2021/03/03 21:36:19;;;;;;;297.48;134.48;;;;;;;;;;5075844;28;20028;-63
2021/03/03 21:38:45;;;;;;;299.70;137.05;;;;;;;;;;5075704;28;20029;-63
2021/03/03 21:41:11;;;;;;;322.85;145.40;;;;;;;;;;5075750;28;20100;-63
2021/03/03 21:43:37;;;;;;;334.42;146.38;;;;;;;;;;5074347;28;20029;-63
2021/03/03 21:46:04;;;;;;;318.88;142.02;;;;;;;;;;5075691;28;20071;-63
2021/03/03 21:48:30;;;;;;;310.52;142.35;;;;;;;;;;5074339;28;20082;-62
2021/03/03 21:50:56;;;;;;;306.55;136.50;;;;;;;;;;5075745;28;20524;-63
2021/03/03 21:53:22;;;;;;;295.27;134.75;;;;;;;;;;5075834;28;20021;-63
2021/03/03 21:55:49;;;;;;;314.83;138.75;;;;;;;;;;5075253;28;20050;-62
2021/03/03 21:58:15;;;;;;;309.58;137.60;;;;;;;;;;5075168;28;20028;-62
2021/03/03 22:00:41;;;;;;;293.92;130.38;;;;;;;;;;5075397;28;20079;-62
2021/03/03 22:03:08;;;;;;;290.08;127.25;;;;;;;;;;5074342;28;20379;-63
2021/03/03 22:05:34;;;;;;;244.13;116.68;;;;;;;;;;5075334;28;20127;-63
2021/03/03 22:08:00;;;;;;;208.23;101.32;;;;;;;;;;5074004;28;20037;-63
2021/03/03 22:10:26;;;;;;;231.18;103.70;;;;;;;;;;5075221;28;20025;-62
2021/03/03 22:12:52;;;;;;;1109.93;367.27;;;;;;;;;;5074856;28;20463;-62
2021/03/03 22:15:20;;;;;;;733.75;246.88;;;;;;;;;;5075216;28;20024;-62
2021/03/03 22:17:46;;;;;;;319.23;122.68;;;;;;;;;;5074997;28;20033;-62
2021/03/03 22:20:12;;;;;;;278.08;120.00;;;;;;;;;;5073256;28;20166;-62
2021/03/03 22:22:38;;;;;;;285.38;127.63;;;;;;;;;;5074997;28;20033;-62
2021/03/03 22:25:08;;;;;;;233.85;109.97;;;;;;;;;;5073709;28;20021;-63
2021/03/03 22:27:34;;;;;;;230.65;103.95;;;;;;;;;;5073573;28;20105;-63
2021/03/03 22:30:00;;;;;;;245.23;110.13;;;;;;;;;;5074867;28;20119;-63
2021/03/03 22:32:26;;;;;;;695.33;301.67;;;;;;;;;;5074437;28;20442;-62
2021/03/03 22:34:53;;;;;;;457.75;190.50;;;;;;;;;;5075015;28;20068;-63
2021/03/03 22:37:19;;;;;;;318.52;134.43;;;;;;;;;;5074778;28;20590;-63
2021/03/03 22:39:45;;;;;;;198.93;94.70;;;;;;;;;;5073261;28;20033;-62
2021/03/03 22:42:11;;;;;;;140.15;67.35;;;;;;;;;;5074596;28;20024;-62
2021/03/03 22:44:37;;;;;;;124.10;56.55;;;8.00;66.10;;;;;;5074617;28;20546;-60
2021/03/03 22:47:03;;;;;;;1219.60;523.42;;;6.90;88.20;;;;;;5074570;28;20082;-61
2021/03/03 22:49:29;;;;;;;1204.57;520.40;;;6.80;90.40;;;;;;5074649;28;20159;-60
2021/03/03 22:51:55;;;;;;;1999.90;916.38;;;6.80;89.80;;;;;;5074410;28;20055;-60
2021/03/03 22:54:21;;;;;;;630.30;273.05;;;6.80;89.00;;;;;;5074622;28;20443;-60
2021/03/03 22:56:47;;;;;;;314.67;125.32;;;6.60;88.30;;;;;;5074421;28;20032;-61
2021/03/03 22:59:13;;;;;;;108.35;54.25;;;;;;;;;;5072873;28;20028;-62
2021/03/03 23:01:39;;;;;;;132.25;64.30;;;;;;;;;;5073938;28;20025;-61
2021/03/03 23:04:05;;;;;;;159.02;75.05;;;;;;;;;;5074375;28;20463;-61
2021/03/03 23:06:32;;;;;;;172.77;79.40;;;;;;;;;;5074328;28;20027;-61
2021/03/03 23:08:58;;;;;;;191.60;86.53;;;;;;;;;;5072750;28;20163;-61
2021/03/03 23:11:24;;;;;;;234.38;106.00;;;;;;;;;;5072661;28;20378;-61
2021/03/03 23:13:51;;;;;;;214.82;98.22;;;;;;;;;;5073927;28;20093;-61
2021/03/03 23:16:16;;;;;;;236.02;100.90;;;6.40;88.10;;;;;;5073672;28;20117;-61
2021/03/03 23:18:42;;;;;;;346.33;151.27;;;5.40;86.20;;;;;;5073288;28;20088;-61
2021/03/03 23:21:08;;;;;;;415.13;209.48;;;5.30;85.30;;;;;;5073877;28;20044;-61
2021/03/03 23:23:37;;;;;;;446.42;224.68;;;;;;;;;;5073724;28;20025;-60
2021/03/03 23:26:05;;;;;;;437.65;223.68;;;5.20;84.60;;;;;;5072479;28;20025;-62
2021/03/03 23:28:33;;;;;;;448.60;225.02;;;5.00;84.10;;;;;;5073123;28;20074;-60
2021/03/03 23:31:02;;;;;;;455.15;223.80;;;4.90;85.00;;;;;;5073604;28;20035;-61
2021/03/03 23:33:28;;;;;;;467.20;238.75;;;4.90;85.40;;;;;;5073573;28;20020;-60
2021/03/03 23:35:54;;;;;;;473.08;240.48;;;4.90;85.10;;;;;;5073615;28;20029;-61
2021/03/03 23:38:22;;;;;;;450.98;238.90;;;4.90;84.80;;;;;;5073518;28;20028;-62
2021/03/03 23:40:48;;;;;;;489.02;257.52;;;;;;;;;;5072136;28;20037;-61
2021/03/03 23:43:14;;;;;;;459.48;243.13;;;;;;;;;;5073436;28;20032;-60
2021/03/03 23:45:40;;;;;;;450.92;232.63;;;;;;;;;;5072497;28;20367;-61
2021/03/03 23:48:07;;;;;;;454.35;225.75;;;;;;;;;;5073432;28;20078;-61
2021/03/03 23:50:35;;;;;;;424.33;209.52;;;;;;;;;;5073441;28;20028;-61
2021/03/03 23:53:01;;;;;;;429.17;200.50;;;;;;;;;;5073346;28;20059;-61
2021/03/03 23:55:27;;;;;;;317.38;146.95;;;;;;;;;;5072001;28;20036;-62
2021/03/03 23:57:53;;;;;;;320.25;154.35;;;;;;;;;;5071981;28;20035;-61
